createdAt,value
2022-09-01T00:00:49.179Z,99476.47
2022-09-01T00:04:50.802Z,99477.25
2022-09-01T00:08:54.294Z,99471.16
2022-09-01T00:12:56.756Z,99467.56
2022-09-01T00:17:01.435Z,99469.16
2022-09-01T00:21:03.202Z,99477.63
2022-09-01T00:25:06.467Z,99485.41
2022-09-01T00:29:08.145Z,99480.00
2022-09-01T00:33:10.778Z,99478.16
2022-09-01T00:37:13.525Z,99475.41
2022-09-01T00:41:16.474Z,99482.34
2022-09-01T00:45:20.234Z,99475.44
2022-09-01T00:49:35.649Z,99483.25
2022-09-01T00:53:41.573Z,99481.63
2022-09-01T00:57:43.958Z,99480.25
2022-09-01T01:01:45.450Z,99481.50
2022-09-01T01:05:53.875Z,99476.44
2022-09-01T01:09:56.049Z,99471.16
2022-09-01T01:14:00.799Z,99473.84
2022-09-01T01:18:02.564Z,99475.97
2022-09-01T01:22:26.538Z,99468.41
2022-09-01T01:26:28.528Z,99466.16
2022-09-01T01:30:32.450Z,99467.28
2022-09-01T01:34:34.399Z,99468.22
2022-09-01T01:38:36.765Z,99458.84
2022-09-01T01:42:38.859Z,99455.59
2022-09-01T01:46:44.068Z,99468.78
2022-09-01T01:50:46.014Z,99466.34
2022-09-01T01:54:47.670Z,99471.72
2022-09-01T01:58:49.211Z,99466.69
2022-09-01T02:02:54.151Z,99476.03
2022-09-01T02:06:55.831Z,99473.53
2022-09-01T02:11:00.190Z,99477.97
2022-09-01T02:15:03.145Z,99474.53
2022-09-01T02:19:08.850Z,99466.78
2022-09-01T02:23:11.509Z,99461.59
2022-09-01T02:27:13.273Z,99468.75
2022-09-01T02:31:15.187Z,99467.03
2022-09-01T02:35:16.777Z,99462.78
2022-09-01T02:39:23.229Z,99471.59
2022-09-01T02:43:28.098Z,99466.53
2022-09-01T02:47:29.831Z,99467.53
2022-09-01T02:51:31.606Z,99467.66
2022-09-01T02:55:33.154Z,99466.84
2022-09-01T02:59:39.647Z,99459.97
2022-09-01T03:03:44.802Z,99463.78
2022-09-01T03:07:46.338Z,99465.56
2022-09-01T03:11:51.499Z,99464.84
2022-09-01T03:15:53.484Z,99478.97
2022-09-01T03:19:54.990Z,99462.44
2022-09-01T03:23:58.103Z,99467.66
2022-09-01T03:28:03.138Z,99475.50
2022-09-01T03:32:05.063Z,99485.13
2022-09-01T03:36:14.300Z,99477.31
2022-09-01T03:40:18.465Z,99475.59
2022-09-01T03:44:19.969Z,99479.22
2022-09-01T03:48:23.337Z,99481.88
2022-09-01T03:52:25.954Z,99472.38
2022-09-01T03:56:29.205Z,99473.38
2022-09-01T04:00:32.401Z,99467.38
2022-09-01T04:04:34.005Z,99464.91
2022-09-01T04:08:36.153Z,99471.91
2022-09-01T04:12:39.292Z,99466.75
2022-09-01T04:16:59.677Z,99463.47
2022-09-01T04:21:01.998Z,99464.34
2022-09-01T04:25:05.232Z,99469.69
2022-09-01T04:29:10.618Z,99465.44
2022-09-01T04:33:12.525Z,99462.84
2022-09-01T04:37:18.868Z,99464.63
2022-09-01T04:41:32.241Z,99467.31
2022-09-01T04:45:37.133Z,99468.22
2022-09-01T04:49:38.722Z,99457.94
2022-09-01T04:53:40.788Z,99460.53
2022-09-01T04:57:42.409Z,99459.66
2022-09-01T05:01:45.259Z,99467.50
2022-09-01T05:05:47.487Z,99457.09
2022-09-01T05:09:49.349Z,99458.00
2022-09-01T05:13:56.394Z,99460.59
2022-09-01T05:18:02.398Z,99463.16
2022-09-01T05:22:04.950Z,99464.94
2022-09-01T05:26:17.091Z,99459.59
2022-09-01T05:30:18.675Z,99465.50
2022-09-01T05:34:26.855Z,99459.25
2022-09-01T05:38:30.907Z,99475.63
2022-09-01T05:42:32.869Z,99478.88
2022-09-01T05:46:37.709Z,99478.63
2022-09-01T05:50:42.844Z,99479.41
2022-09-01T05:54:48.111Z,99473.91
2022-09-01T06:03:16.025Z,99472.59
2022-09-01T06:07:24.983Z,99468.69
2022-09-01T06:11:27.251Z,99467.75
2022-09-01T06:15:32.791Z,99466.84
2022-09-01T06:19:37.209Z,99470.16
2022-09-01T06:23:39.006Z,99475.84
2022-09-01T06:27:42.618Z,99474.56
2022-09-01T06:31:47.539Z,99474.09
2022-09-01T06:35:48.977Z,99468.44
2022-09-01T06:39:50.818Z,99468.88
2022-09-01T06:43:54.004Z,99474.78
2022-09-01T06:47:57.759Z,99472.66
2022-09-01T06:52:03.831Z,99469.66
2022-09-01T06:56:05.413Z,99471.47
2022-09-01T07:00:13.027Z,99472.84
2022-09-01T07:04:17.234Z,99481.13
2022-09-01T07:08:20.141Z,99486.22
2022-09-01T07:12:26.154Z,99485.00
2022-09-01T07:21:35.741Z,99482.28
2022-09-01T07:25:16.703Z,99488.50
2022-09-01T07:29:19.999Z,99492.91
2022-09-01T07:38:48.079Z,99484.19
2022-09-01T07:46:40.318Z,99485.78
2022-09-01T07:55:11.850Z,99483.97
2022-09-01T07:59:15.505Z,99479.47
2022-09-01T08:03:20.416Z,99480.09
2022-09-01T08:07:22.132Z,99468.78
2022-09-01T08:11:58.140Z,99470.44
2022-09-01T08:20:10.593Z,99477.38
2022-09-01T08:24:15.888Z,99481.50
2022-09-01T08:28:26.626Z,99480.28
2022-09-01T08:32:28.516Z,99483.03
2022-09-01T08:36:30.281Z,99488.09
2022-09-01T08:40:31.810Z,99481.72
2022-09-01T08:44:51.722Z,99477.78
2022-09-01T08:49:24.309Z,99487.56
2022-09-01T08:53:27.710Z,99486.41
2022-09-01T08:57:38.695Z,99482.88
2022-09-01T09:02:12.147Z,99485.09
2022-09-01T09:06:20.579Z,99483.09
2022-09-01T09:10:32.338Z,99471.69
2022-09-01T09:15:01.382Z,99481.97
2022-09-01T09:19:07.685Z,99479.88
2022-09-01T09:23:24.912Z,99477.47
2022-09-01T09:27:33.533Z,99473.09
2022-09-01T09:31:43.135Z,99471.59
2022-09-01T09:35:47.383Z,99466.91
2022-09-01T09:40:10.816Z,99470.13
2022-09-01T09:44:31.138Z,99467.56
2022-09-01T09:48:34.258Z,99465.06
2022-09-01T09:52:35.705Z,99457.38
2022-09-01T09:56:37.258Z,99448.69
2022-09-01T10:00:40.077Z,99454.56
2022-09-01T10:04:43.018Z,99446.63
2022-09-01T10:08:46.104Z,99444.69
2022-09-01T10:12:48.773Z,99434.69
2022-09-01T10:17:04.430Z,99434.03
2022-09-01T10:21:26.578Z,99435.97
2022-09-01T10:25:33.052Z,99434.53
2022-09-01T10:29:47.902Z,99434.78
2022-09-01T10:33:51.158Z,99422.38
2022-09-01T10:37:53.778Z,99422.69
2022-09-01T10:42:00.155Z,99418.66
2022-09-01T10:46:39.059Z,99424.19
2022-09-01T10:50:42.302Z,99427.81
2022-09-01T10:54:51.732Z,99422.00
2022-09-01T10:59:43.428Z,99429.91
2022-09-01T11:03:54.390Z,99426.06
2022-09-01T11:08:01.200Z,99416.53
2022-09-01T11:12:15.219Z,99422.94
2022-09-01T11:16:53.685Z,99410.81
2022-09-01T11:20:57.774Z,99411.59
2022-09-01T11:25:14.382Z,99415.34
2022-09-01T11:29:52.361Z,99413.69
2022-09-01T11:34:15.778Z,99411.38
2022-09-01T11:38:19.913Z,99410.56
2022-09-01T11:42:27.303Z,99405.66
2022-09-01T11:46:34.839Z,99397.28
2022-09-01T11:50:39.735Z,99405.53
2022-09-01T11:54:43.331Z,99396.38
2022-09-01T11:58:44.957Z,99394.63
2022-09-01T12:02:48.356Z,99398.72
2022-09-01T12:06:58.094Z,99388.97
2022-09-01T12:11:06.038Z,99392.59
2022-09-01T12:15:22.001Z,99388.50
2022-09-01T12:19:26.688Z,99380.66
2022-09-01T12:23:34.487Z,99392.19
2022-09-01T12:27:36.653Z,99381.69
2022-09-01T12:31:41.196Z,99381.88
2022-09-01T12:35:43.060Z,99380.19
2022-09-01T12:39:48.198Z,99389.66
2022-09-01T12:43:54.726Z,99382.41
2022-09-01T12:47:56.404Z,99379.44
2022-09-01T12:52:19.929Z,99366.75
2022-09-01T12:56:31.070Z,99369.09
2022-09-01T13:00:35.437Z,99363.47
2022-09-01T13:04:37.057Z,99368.97
2022-09-01T13:08:38.531Z,99366.38
2022-09-01T13:12:42.369Z,99355.34
2022-09-01T13:16:45.054Z,99351.75
2022-09-01T13:20:46.863Z,99342.94
2022-09-01T13:24:48.776Z,99339.56
2022-09-01T13:28:51.586Z,99342.50
2022-09-01T13:33:23.675Z,99336.06
2022-09-01T13:37:17.224Z,99340.00
2022-09-01T13:41:18.731Z,99341.16
2022-09-01T13:45:25.663Z,99337.25
2022-09-01T13:50:04.529Z,99328.06
2022-09-01T13:53:51.841Z,99327.09
2022-09-01T13:57:55.984Z,99329.81
2022-09-01T14:01:57.664Z,99325.66
2022-09-01T14:06:02.456Z,99320.28
2022-09-01T14:10:05.123Z,99312.00
2022-09-01T14:14:07.806Z,99318.22
2022-09-01T14:23:00.910Z,99311.41
2022-09-01T14:31:41.037Z,99311.59
2022-09-01T14:35:54.316Z,99309.44
2022-09-01T14:39:57.808Z,99300.09
2022-09-01T14:44:03.261Z,99305.22
2022-09-01T14:48:05.680Z,99301.16
2022-09-01T14:52:12.169Z,99296.88
2022-09-01T14:56:16.213Z,99303.53
2022-09-01T15:00:18.428Z,99290.63
2022-09-01T15:04:20.346Z,99295.41
2022-09-01T15:08:23.568Z,99297.22
2022-09-01T15:12:30.773Z,99295.38
2022-09-01T15:16:39.584Z,99293.94
2022-09-01T15:20:48.591Z,99293.78
2022-09-01T15:24:50.130Z,99284.97
2022-09-01T15:28:51.726Z,99290.38
2022-09-01T15:32:54.585Z,99291.72
2022-09-01T15:36:56.074Z,99279.66
2022-09-01T15:40:58.715Z,99278.75
2022-09-01T15:45:00.326Z,99270.00
2022-09-01T15:49:08.383Z,99272.19
2022-09-01T15:53:13.144Z,99268.06
2022-09-01T15:57:14.657Z,99272.88
2022-09-01T16:01:18.924Z,99271.97
2022-09-01T16:05:20.517Z,99264.59
2022-09-01T16:09:26.761Z,99263.66
2022-09-01T16:18:50.584Z,99253.50
2022-09-01T16:28:36.143Z,99240.09
2022-09-01T16:38:04.042Z,99236.81
2022-09-01T16:42:05.777Z,99239.47
2022-09-01T16:46:38.002Z,99232.06
2022-09-01T16:56:11.024Z,99225.53
2022-09-01T17:05:40.749Z,99231.19
2022-09-01T17:10:37.533Z,99233.13
2022-09-01T17:15:23.351Z,99237.75
2022-09-01T17:19:42.886Z,99235.06
2022-09-01T17:24:22.082Z,99241.25
2022-09-01T17:28:37.242Z,99231.50
2022-09-01T17:33:44.922Z,99230.91
2022-09-01T17:42:37.666Z,99243.31
2022-09-01T17:47:20.353Z,99250.25
2022-09-01T17:52:15.027Z,99247.56
2022-09-01T17:56:56.146Z,99244.94
2022-09-01T18:01:21.613Z,99246.88
2022-09-01T18:05:41.791Z,99247.00
2022-09-01T18:10:00.314Z,99248.59
2022-09-01T18:18:49.204Z,99257.69
2022-09-01T18:23:10.839Z,99258.22
2022-09-01T18:41:21.392Z,99279.50
2022-09-01T18:46:50.276Z,99269.72
2022-09-01T19:00:18.068Z,99271.72
2022-09-01T19:04:32.467Z,99273.34
2022-09-01T19:19:17.935Z,99283.88
2022-09-01T19:23:50.388Z,99281.00
2022-09-01T19:28:29.190Z,99284.28
2022-09-01T19:46:22.256Z,99282.13
2022-09-01T19:55:40.024Z,99276.84
2022-09-01T20:00:00.204Z,99279.84
2022-09-01T20:04:17.380Z,99276.69
2022-09-01T20:08:50.446Z,99273.41
2022-09-01T20:13:31.836Z,99272.00
2022-09-01T20:17:49.881Z,99273.31
2022-09-01T20:21:52.639Z,99274.44
2022-09-01T20:26:09.274Z,99279.44
2022-09-01T20:30:44.979Z,99268.19
2022-09-01T20:40:05.499Z,99270.22
2022-09-01T20:49:02.245Z,99273.34
2022-09-01T20:53:45.503Z,99269.25
2022-09-01T20:58:03.694Z,99267.84
2022-09-01T21:02:39.846Z,99261.78
2022-09-01T21:07:31.133Z,99265.28
2022-09-01T21:11:43.385Z,99272.44
2022-09-01T21:16:00.688Z,99267.38
2022-09-01T21:20:09.395Z,99262.09
2022-09-01T21:24:10.997Z,99261.19
2022-09-01T21:28:22.042Z,99264.31
2022-09-01T21:32:25.364Z,99268.50
2022-09-01T21:36:28.760Z,99258.81
2022-09-01T21:40:32.016Z,99252.78
2022-09-01T21:44:34.282Z,99260.75
2022-09-01T21:48:37.188Z,99258.13
2022-09-01T21:52:40.267Z,99253.72
2022-09-01T21:56:41.773Z,99257.19
2022-09-01T22:00:44.715Z,99252.94
2022-09-01T22:04:49.141Z,99245.16
2022-09-01T22:08:52.102Z,99249.81
2022-09-01T22:13:04.546Z,99246.41
2022-09-01T22:17:06.921Z,99244.97
2022-09-01T22:21:10.360Z,99246.34
2022-09-01T22:25:16.236Z,99245.59
2022-09-01T22:29:21.474Z,99235.28
2022-09-01T22:33:25.306Z,99232.84
2022-09-01T22:37:27.030Z,99233.03
2022-09-01T22:41:30.434Z,99238.47
2022-09-01T22:45:31.958Z,99237.72
2022-09-01T22:49:34.013Z,99236.03
2022-09-01T22:53:40.189Z,99235.16
2022-09-01T22:57:41.787Z,99231.69
2022-09-01T23:01:55.569Z,99230.81
2022-09-01T23:06:27.811Z,99236.94
2022-09-01T23:10:31.277Z,99233.47
2022-09-01T23:14:33.106Z,99232.63
2022-09-01T23:18:37.333Z,99226.56
2022-09-01T23:22:43.651Z,99221.31
2022-09-01T23:26:45.520Z,99221.31
2022-09-01T23:30:59.075Z,99212.56
2022-09-01T23:35:01.129Z,99214.34
2022-09-01T23:39:05.844Z,99211.72
2022-09-01T23:43:12.148Z,99216.97
2022-09-01T23:47:18.005Z,99209.22
2022-09-01T23:51:35.512Z,99209.34
2022-09-01T23:55:49.999Z,99211.09
2022-09-01T23:59:57.254Z,99208.66
